Ellicott, Colorado
Current Conditions -  °F | °C
As of 8:54 AM on Saturday 20 Dec 2014 (Local Time) from KFLY Reporting Station
Clear Clear  
Wind Chill: 36°   Ceiling: Unl
Heat Index: 36°   Visibility: 10mi
Dew Point: 19°   Wind: 3mph
Humidity: 49%   Direction: 270°W
Pressure: 30.04"   Gusts: NA
Location:  39.0026°N, 104.316°W
Report Text: KFLY 201554Z AUTO 27003KT 10SM CLR 02/M07 A3004 RMK AO2 T00231074
Loading
Personal Weather Stations






























Interactive Weather Map New forecast layout! Learn more

10-Day Weather Forecast

Advertisements
Track Severe Weather on mobile